createdAt,value
2023-03-21T00:00:28.998Z,65.72
2023-03-21T00:02:55.565Z,65.68
2023-03-21T00:05:22.479Z,65.54
2023-03-21T00:07:49.081Z,65.71
2023-03-21T00:10:23.923Z,65.96
2023-03-21T00:12:56.337Z,65.60
2023-03-21T00:15:24.988Z,65.71
2023-03-21T00:17:57.582Z,65.40
2023-03-21T00:20:24.244Z,65.11
2023-03-21T00:22:50.698Z,65.26
2023-03-21T00:25:17.234Z,65.55
2023-03-21T00:27:57.232Z,65.10
2023-03-21T00:30:30.000Z,65.67
2023-03-21T00:32:57.017Z,66.10
2023-03-21T00:36:06.450Z,65.71
2023-03-21T00:38:10.623Z,65.45
2023-03-21T00:40:40.839Z,65.67
2023-03-21T00:43:16.118Z,66.25
2023-03-21T00:45:42.794Z,65.77
2023-03-21T00:48:09.774Z,65.67
2023-03-21T00:50:37.392Z,65.94
2023-03-21T00:53:03.877Z,65.62
2023-03-21T00:55:30.373Z,66.22
2023-03-21T00:58:02.172Z,66.20
2023-03-21T01:00:29.590Z,66.84
2023-03-21T01:03:02.666Z,66.29
2023-03-21T01:05:42.461Z,65.94
2023-03-21T01:08:22.989Z,66.24
2023-03-21T01:10:52.671Z,66.22
2023-03-21T01:13:20.306Z,65.63
2023-03-21T01:15:57.473Z,65.47
2023-03-21T01:18:27.720Z,66.76
2023-03-21T01:20:56.062Z,65.53
2023-03-21T01:23:22.845Z,65.13
2023-03-21T01:25:50.930Z,66.05
2023-03-21T01:28:17.411Z,65.89
2023-03-21T01:30:48.826Z,66.06
2023-03-21T01:33:16.320Z,65.85
2023-03-21T01:35:51.625Z,66.34
2023-03-21T01:38:21.817Z,66.86
2023-03-21T01:40:49.884Z,67.06
2023-03-21T01:43:21.680Z,67.66
2023-03-21T01:46:10.629Z,67.57
2023-03-21T01:48:41.974Z,67.58
2023-03-21T01:51:12.356Z,66.86
2023-03-21T01:53:40.753Z,67.59
2023-03-21T01:56:42.653Z,67.58
2023-03-21T01:59:14.227Z,67.57
2023-03-21T02:01:41.136Z,66.73
2023-03-21T02:04:08.096Z,67.50
2023-03-21T02:06:51.851Z,67.56
2023-03-21T02:09:22.564Z,68.54
2023-03-21T02:11:49.350Z,68.20
2023-03-21T02:14:27.001Z,68.50
2023-03-21T02:17:24.098Z,68.90
2023-03-21T02:20:05.107Z,68.03
2023-03-21T02:22:31.519Z,67.38
2023-03-21T02:25:21.749Z,67.85
2023-03-21T02:28:00.580Z,68.98
2023-03-21T02:31:13.797Z,68.78
2023-03-21T02:33:57.426Z,69.31
2023-03-21T02:36:48.395Z,68.80
2023-03-21T02:39:19.463Z,69.61
2023-03-21T02:41:52.222Z,69.06
2023-03-21T02:44:41.612Z,68.50
2023-03-21T02:47:14.965Z,68.08
2023-03-21T02:50:10.430Z,68.88
2023-03-21T02:52:39.819Z,68.16
2023-03-21T02:55:14.564Z,67.83
2023-03-21T02:57:44.416Z,68.19
2023-03-21T03:00:17.517Z,68.32
2023-03-21T03:02:44.787Z,68.50
2023-03-21T03:05:21.354Z,67.68
2023-03-21T03:07:48.229Z,68.07
2023-03-21T03:10:44.029Z,68.60
2023-03-21T03:13:16.435Z,68.31
2023-03-21T03:15:56.800Z,68.96
2023-03-21T03:18:29.298Z,68.46
2023-03-21T03:21:07.950Z,68.71
2023-03-21T03:23:34.349Z,69.11
2023-03-21T03:26:17.902Z,69.30
2023-03-21T03:28:52.714Z,68.97
2023-03-21T03:31:24.215Z,68.72
2023-03-21T03:33:54.488Z,68.38
2023-03-21T03:36:32.038Z,69.00
2023-03-21T03:39:02.296Z,68.84
2023-03-21T03:41:31.875Z,68.80
2023-03-21T03:44:03.556Z,69.96
2023-03-21T03:46:31.993Z,69.89
2023-03-21T03:49:04.985Z,69.88
2023-03-21T03:51:39.076Z,70.62
2023-03-21T03:54:11.143Z,69.89
2023-03-21T03:56:38.119Z,69.63
2023-03-21T03:59:05.512Z,69.77
2023-03-21T04:01:32.073Z,69.50
2023-03-21T04:04:11.943Z,69.68
2023-03-21T04:06:39.122Z,69.34
2023-03-21T04:09:17.132Z,69.45
2023-03-21T04:11:46.277Z,69.33
2023-03-21T04:14:12.865Z,68.96
2023-03-21T04:16:39.354Z,69.46
2023-03-21T04:19:05.894Z,69.12
2023-03-21T04:21:32.577Z,69.43
2023-03-21T04:23:59.069Z,69.99
2023-03-21T04:26:25.775Z,69.76
2023-03-21T04:28:52.241Z,69.24
2023-03-21T04:31:25.472Z,68.62
2023-03-21T04:33:52.607Z,69.23
2023-03-21T04:36:19.254Z,68.88
2023-03-21T04:38:45.739Z,69.17
2023-03-21T04:41:12.225Z,68.83
2023-03-21T04:43:38.701Z,69.51
2023-03-21T04:46:05.450Z,68.98
2023-03-21T04:48:31.951Z,69.59
2023-03-21T04:50:58.412Z,69.06
2023-03-21T04:53:24.862Z,70.17
2023-03-21T04:55:54.889Z,69.20
2023-03-21T04:58:21.853Z,68.98
2023-03-21T05:00:48.358Z,70.01
2023-03-21T05:03:14.879Z,70.48
2023-03-21T05:05:41.294Z,69.45
2023-03-21T05:08:07.764Z,69.85
2023-03-21T05:10:34.267Z,70.45
2023-03-21T05:13:00.758Z,69.83
2023-03-21T05:15:27.262Z,69.20
2023-03-21T05:17:53.757Z,69.54
2023-03-21T05:20:20.187Z,69.77
2023-03-21T05:22:46.614Z,69.92
2023-03-21T05:25:13.368Z,68.83
2023-03-21T05:27:40.134Z,69.02
2023-03-21T05:30:16.521Z,68.52
2023-03-21T05:32:43.083Z,68.06
2023-03-21T05:35:10.333Z,68.89
2023-03-21T05:37:36.892Z,68.18
2023-03-21T05:40:04.102Z,68.22
2023-03-21T05:42:30.577Z,67.52
2023-03-21T05:44:57.018Z,66.88
2023-03-21T05:47:23.508Z,66.77
2023-03-21T05:49:49.990Z,66.67
2023-03-21T05:52:16.823Z,66.23
2023-03-21T05:54:43.371Z,66.16
2023-03-21T05:57:10.160Z,66.31
2023-03-21T05:59:36.840Z,66.15
2023-03-21T06:02:03.910Z,65.97
2023-03-21T06:04:30.597Z,65.36
2023-03-21T06:06:57.336Z,65.58
2023-03-21T06:09:24.200Z,64.73
2023-03-21T06:11:52.892Z,64.39
2023-03-21T06:14:20.470Z,64.68
2023-03-21T06:16:46.970Z,64.03
2023-03-21T06:19:14.079Z,63.82
2023-03-21T06:21:40.747Z,63.42
2023-03-21T06:24:07.373Z,63.72
2023-03-21T06:26:33.901Z,63.84
2023-03-21T06:29:00.435Z,62.64
2023-03-21T06:31:26.939Z,61.50
2023-03-21T06:33:53.632Z,62.07
2023-03-21T06:36:20.508Z,61.93
2023-03-21T06:38:47.006Z,61.80
2023-03-21T06:41:13.643Z,59.74
2023-03-21T06:43:40.118Z,60.30
2023-03-21T06:46:06.591Z,59.65
2023-03-21T06:48:33.235Z,59.42
2023-03-21T06:50:59.706Z,59.97
2023-03-21T06:53:26.392Z,59.97
2023-03-21T06:55:54.453Z,60.08
2023-03-21T06:58:22.097Z,60.45
2023-03-21T07:00:49.106Z,59.73
2023-03-21T07:03:15.818Z,58.85
2023-03-21T07:05:42.789Z,58.30
2023-03-21T07:08:09.395Z,58.20
2023-03-21T07:10:39.274Z,58.00
2023-03-21T07:13:06.162Z,57.05
2023-03-21T07:15:32.976Z,57.31
2023-03-21T07:17:59.430Z,56.35
2023-03-21T07:20:26.148Z,56.44
2023-03-21T07:22:52.881Z,56.59
2023-03-21T07:25:19.405Z,55.41
2023-03-21T07:27:46.475Z,55.56
2023-03-21T07:30:14.008Z,55.23
2023-03-21T07:32:40.702Z,55.29
2023-03-21T07:35:10.648Z,54.33
2023-03-21T07:37:38.235Z,54.77
2023-03-21T07:40:05.263Z,53.00
2023-03-21T07:44:59.066Z,53.10
2023-03-21T07:47:25.526Z,53.34
2023-03-21T07:49:51.976Z,53.62
2023-03-21T07:52:18.456Z,53.10
2023-03-21T07:54:44.912Z,52.73
2023-03-21T07:57:13.546Z,52.61
2023-03-21T07:59:40.204Z,52.61
2023-03-21T08:02:07.030Z,52.17
2023-03-21T08:04:34.162Z,51.18
2023-03-21T08:07:00.581Z,52.01
2023-03-21T08:09:27.023Z,51.97
2023-03-21T08:11:53.545Z,50.70
2023-03-21T08:14:20.033Z,50.49
2023-03-21T08:16:46.568Z,50.87
2023-03-21T08:19:13.071Z,49.69
2023-03-21T08:21:39.534Z,50.11
2023-03-21T08:24:06.169Z,49.99
2023-03-21T08:26:33.097Z,49.42
2023-03-21T08:29:00.020Z,49.83
2023-03-21T08:31:26.600Z,50.22
2023-03-21T08:33:53.106Z,49.85
2023-03-21T08:36:19.734Z,50.05
2023-03-21T08:38:46.219Z,50.07
2023-03-21T08:41:12.715Z,49.63
2023-03-21T08:43:39.189Z,48.77
2023-03-21T08:46:06.037Z,47.09
2023-03-21T08:48:32.777Z,46.62
2023-03-21T08:51:02.408Z,46.22
2023-03-21T08:53:28.922Z,47.50
2023-03-21T08:55:55.501Z,45.21
2023-03-21T08:58:22.998Z,42.86
2023-03-21T09:00:49.751Z,42.27
2023-03-21T09:03:16.467Z,42.32
2023-03-21T09:05:42.990Z,40.20
2023-03-21T09:08:09.461Z,42.12
2023-03-21T09:10:35.914Z,40.31
2023-03-21T09:13:02.381Z,38.82
2023-03-21T09:15:28.885Z,38.70
2023-03-21T09:17:56.335Z,38.66
2023-03-21T09:20:24.912Z,38.52
2023-03-21T09:22:52.168Z,38.10
2023-03-21T09:25:19.006Z,35.62
2023-03-21T09:27:46.090Z,35.72
2023-03-21T09:30:14.306Z,36.18
2023-03-21T09:32:40.794Z,35.82
2023-03-21T09:35:07.594Z,34.58
2023-03-21T09:37:34.306Z,34.63
2023-03-21T09:40:00.660Z,35.18
2023-03-21T09:42:35.626Z,36.11
2023-03-21T09:45:12.593Z,33.81
2023-03-21T09:47:45.564Z,35.40
2023-03-21T09:50:19.669Z,34.38
2023-03-21T09:52:56.948Z,33.47
2023-03-21T09:55:25.671Z,33.25
2023-03-21T09:58:23.841Z,32.09
2023-03-21T10:00:54.229Z,29.56
2023-03-21T10:03:24.827Z,30.03
2023-03-21T10:05:52.971Z,29.62
2023-03-21T10:08:26.902Z,30.34
2023-03-21T10:10:58.249Z,29.80
2023-03-21T10:13:29.224Z,29.56
2023-03-21T10:16:02.385Z,30.38
2023-03-21T10:18:31.321Z,30.08
2023-03-21T10:20:58.125Z,30.39
2023-03-21T10:23:29.400Z,30.40
2023-03-21T10:25:59.774Z,31.56
2023-03-21T10:28:46.026Z,32.62
2023-03-21T10:31:21.464Z,31.79
2023-03-21T10:33:50.585Z,32.00
2023-03-21T10:36:26.872Z,29.33
2023-03-21T10:38:58.303Z,30.19
2023-03-21T10:41:24.771Z,28.95
2023-03-21T10:44:16.697Z,30.11
2023-03-21T10:46:54.815Z,28.65
2023-03-21T10:49:22.295Z,30.47
2023-03-21T10:51:55.249Z,30.42
2023-03-21T10:54:22.556Z,32.31
2023-03-21T10:56:57.964Z,30.36
2023-03-21T10:59:26.351Z,30.62
2023-03-21T11:01:56.438Z,31.30
2023-03-21T11:04:27.380Z,32.90
2023-03-21T11:06:57.410Z,32.53
2023-03-21T11:09:28.367Z,32.20
2023-03-21T11:12:02.988Z,32.55
2023-03-21T11:14:38.387Z,33.11
2023-03-21T11:17:20.420Z,32.22
2023-03-21T11:19:58.283Z,33.29
2023-03-21T11:22:46.120Z,34.38
2023-03-21T11:25:31.798Z,33.01
2023-03-21T11:28:04.946Z,33.13
2023-03-21T11:30:31.493Z,33.56
2023-03-21T11:33:02.337Z,33.49
2023-03-21T11:35:37.603Z,33.19
2023-03-21T11:38:05.329Z,32.70
2023-03-21T11:40:37.108Z,33.02
2023-03-21T11:43:18.653Z,32.57
2023-03-21T11:45:58.637Z,32.62
2023-03-21T11:48:25.830Z,31.22
2023-03-21T11:51:00.647Z,29.47
2023-03-21T11:54:08.471Z,30.08
2023-03-21T11:56:41.014Z,29.28
2023-03-21T11:59:23.248Z,29.35
2023-03-21T12:02:33.096Z,27.82
2023-03-21T12:05:17.352Z,29.18
2023-03-21T12:07:52.570Z,29.21
2023-03-21T12:10:32.754Z,28.86
2023-03-21T12:13:33.368Z,28.25
2023-03-21T12:16:30.903Z,29.38
2023-03-21T12:19:00.117Z,28.03
2023-03-21T12:22:01.918Z,29.01
2023-03-21T12:24:50.299Z,28.82
2023-03-21T12:27:25.749Z,26.71
2023-03-21T12:30:34.037Z,28.81
2023-03-21T12:33:06.249Z,28.83
2023-03-21T12:35:59.510Z,27.88
2023-03-21T12:38:40.458Z,27.20
2023-03-21T12:41:28.395Z,27.55
2023-03-21T12:44:03.179Z,27.78
2023-03-21T12:46:57.051Z,26.93
2023-03-21T12:49:46.861Z,26.90
2023-03-21T12:52:25.625Z,26.99
2023-03-21T12:54:57.484Z,27.13
2023-03-21T12:57:32.635Z,27.33
2023-03-21T13:00:17.485Z,27.27
2023-03-21T13:02:51.888Z,27.44
2023-03-21T13:05:33.540Z,27.49
2023-03-21T13:08:18.054Z,27.87
2023-03-21T13:10:45.626Z,27.87
2023-03-21T13:13:22.636Z,28.47
2023-03-21T13:16:18.512Z,27.84
2023-03-21T13:19:09.503Z,28.63
2023-03-21T13:21:51.148Z,28.76
2023-03-21T13:24:17.528Z,28.79
2023-03-21T13:26:49.484Z,29.09
2023-03-21T13:29:23.738Z,29.22
2023-03-21T13:31:54.600Z,29.84
2023-03-21T13:34:24.146Z,29.80
2023-03-21T13:36:52.202Z,30.31
2023-03-21T13:39:28.921Z,30.60
2023-03-21T13:41:55.500Z,30.21
2023-03-21T13:44:21.861Z,30.27
2023-03-21T13:46:59.991Z,29.94
2023-03-21T13:49:29.868Z,30.67
2023-03-21T13:51:58.808Z,31.03
2023-03-21T13:54:45.323Z,31.18
2023-03-21T13:57:41.054Z,31.42
2023-03-21T14:00:22.096Z,31.36
2023-03-21T14:02:59.569Z,31.20
2023-03-21T14:05:27.951Z,31.41
2023-03-21T14:08:27.767Z,31.41
2023-03-21T14:11:07.736Z,31.92
2023-03-21T14:13:38.111Z,32.43
2023-03-21T14:16:18.971Z,32.80
2023-03-21T14:18:56.124Z,32.65
2023-03-21T14:21:28.780Z,32.85
2023-03-21T14:24:04.021Z,33.25
2023-03-21T14:26:34.085Z,33.49
2023-03-21T14:29:05.511Z,33.68
2023-03-21T14:31:34.124Z,33.50
2023-03-21T14:34:02.376Z,34.22
2023-03-21T14:36:32.818Z,34.76
2023-03-21T14:39:15.749Z,34.83
2023-03-21T14:41:54.777Z,34.47
2023-03-21T14:44:25.319Z,34.90
2023-03-21T14:47:06.515Z,35.05
2023-03-21T14:49:36.887Z,35.00
2023-03-21T14:52:26.133Z,35.13
2023-03-21T14:54:53.501Z,35.24
2023-03-21T14:57:24.045Z,35.35
2023-03-21T14:59:53.677Z,35.42
2023-03-21T15:02:22.623Z,35.95
2023-03-21T15:04:52.600Z,35.98
2023-03-21T15:07:25.324Z,35.35
2023-03-21T15:09:57.936Z,35.76
2023-03-21T15:12:24.441Z,36.06
2023-03-21T15:14:51.295Z,36.15
2023-03-21T15:17:19.280Z,36.03
2023-03-21T15:19:45.868Z,36.41
2023-03-21T15:22:33.754Z,37.29
2023-03-21T15:25:07.566Z,37.10
2023-03-21T15:27:38.614Z,36.62
2023-03-21T15:30:06.584Z,36.12
2023-03-21T15:32:36.309Z,36.78
2023-03-21T15:35:15.771Z,37.23
2023-03-21T15:37:42.636Z,37.26
2023-03-21T15:40:15.375Z,37.39
2023-03-21T15:42:42.116Z,37.33
2023-03-21T15:45:28.894Z,37.81
2023-03-21T15:48:01.301Z,38.11
2023-03-21T15:50:46.506Z,38.59
2023-03-21T15:53:18.786Z,38.50
2023-03-21T15:55:51.627Z,38.18
2023-03-21T15:58:21.526Z,38.75
2023-03-21T16:00:52.788Z,39.07
2023-03-21T16:03:32.461Z,39.13
2023-03-21T16:06:11.354Z,39.05
2023-03-21T16:08:45.540Z,39.59
2023-03-21T16:11:28.599Z,39.85
2023-03-21T16:13:56.316Z,39.53
2023-03-21T16:16:28.003Z,39.81
2023-03-21T16:18:55.932Z,40.26
2023-03-21T16:21:25.593Z,40.75
2023-03-21T16:23:52.696Z,40.82
2023-03-21T16:26:25.505Z,40.71
2023-03-21T16:28:52.150Z,41.43
2023-03-21T16:31:21.489Z,41.81
2023-03-21T16:33:48.402Z,42.32
2023-03-21T16:36:17.868Z,42.06
2023-03-21T16:38:48.326Z,42.59
2023-03-21T16:41:15.639Z,42.50
2023-03-21T16:43:43.624Z,42.73
2023-03-21T16:46:17.121Z,42.88
2023-03-21T16:48:45.686Z,42.97
2023-03-21T16:51:18.003Z,43.60
2023-03-21T16:53:45.763Z,43.61
2023-03-21T16:56:58.617Z,43.86
2023-03-21T16:59:25.262Z,43.85
2023-03-21T17:01:51.710Z,44.94
2023-03-21T17:04:18.617Z,45.18
2023-03-21T17:06:45.030Z,44.44
2023-03-21T17:09:16.419Z,44.19
2023-03-21T17:11:43.591Z,44.50
2023-03-21T17:14:11.836Z,45.06
2023-03-21T17:16:39.161Z,45.25
2023-03-21T17:19:22.353Z,45.13
2023-03-21T17:21:48.769Z,45.12
2023-03-21T17:24:15.367Z,44.71
2023-03-21T17:26:41.938Z,45.52
2023-03-21T17:29:13.128Z,45.29
2023-03-21T17:31:39.618Z,45.46
2023-03-21T17:34:06.169Z,46.47
2023-03-21T17:36:38.130Z,46.17
2023-03-21T17:39:07.308Z,45.70
2023-03-21T17:41:33.754Z,46.06
2023-03-21T17:44:00.466Z,44.94
2023-03-21T17:46:28.190Z,45.21
2023-03-21T17:48:55.190Z,44.85
2023-03-21T17:51:21.686Z,45.23
2023-03-21T17:53:49.986Z,46.48
2023-03-21T17:56:21.796Z,45.68
2023-03-21T17:58:49.157Z,46.93
2023-03-21T18:01:15.677Z,47.22
2023-03-21T18:03:42.197Z,48.63
2023-03-21T18:06:15.146Z,49.10
2023-03-21T18:08:41.785Z,49.00
2023-03-21T18:11:09.114Z,49.80
2023-03-21T18:13:35.888Z,49.59
2023-03-21T18:16:02.660Z,50.23
2023-03-21T18:18:29.199Z,49.90
2023-03-21T18:20:57.953Z,50.34
2023-03-21T18:23:25.420Z,50.31
2023-03-21T18:25:52.662Z,50.44
2023-03-21T18:28:21.228Z,50.50
2023-03-21T18:33:37.222Z,51.22
2023-03-21T18:36:07.535Z,51.65
2023-03-21T18:38:35.255Z,51.60
2023-03-21T18:41:01.767Z,51.33
2023-03-21T18:46:15.546Z,52.05
2023-03-21T18:48:41.976Z,51.93
2023-03-21T18:51:08.471Z,51.73
2023-03-21T18:53:34.912Z,53.06
2023-03-21T18:56:02.007Z,52.66
2023-03-21T18:58:28.526Z,52.16
2023-03-21T19:00:57.484Z,52.92
2023-03-21T19:03:35.661Z,52.65
2023-03-21T19:06:04.030Z,52.62
2023-03-21T19:08:30.900Z,52.38
2023-03-21T19:11:00.211Z,53.11
2023-03-21T19:13:30.105Z,54.00
2023-03-21T19:15:56.918Z,53.65
2023-03-21T19:18:41.450Z,54.17
2023-03-21T19:21:10.263Z,53.52
2023-03-21T19:24:11.765Z,53.93
2023-03-21T19:26:27.434Z,53.94
2023-03-21T19:28:55.003Z,53.70
2023-03-21T19:31:22.752Z,54.33
2023-03-21T19:33:49.512Z,54.63
2023-03-21T19:36:21.944Z,54.55
2023-03-21T19:38:49.134Z,54.61
2023-03-21T19:41:15.777Z,55.43
2023-03-21T19:43:53.200Z,55.56
2023-03-21T19:46:21.176Z,55.68
2023-03-21T19:48:47.673Z,55.30
2023-03-21T19:51:27.558Z,55.91
2023-03-21T19:53:54.548Z,56.30
2023-03-21T19:56:24.620Z,55.41
2023-03-21T19:58:53.461Z,56.18
2023-03-21T20:01:20.524Z,55.99
2023-03-21T20:03:47.131Z,55.63
2023-03-21T20:06:13.624Z,56.47
2023-03-21T20:11:26.595Z,56.42
2023-03-21T20:13:53.145Z,56.33
2023-03-21T20:16:20.449Z,56.63
2023-03-21T20:18:47.431Z,56.75
2023-03-21T20:21:18.041Z,57.03
2023-03-21T20:23:48.149Z,58.18
2023-03-21T20:26:15.002Z,59.42
2023-03-21T20:28:56.141Z,60.49
2023-03-21T20:31:27.985Z,61.84
2023-03-21T20:33:54.457Z,62.19
2023-03-21T20:36:38.851Z,61.11
2023-03-21T20:39:06.855Z,62.57
2023-03-21T20:41:33.442Z,61.64
2023-03-21T20:46:46.600Z,63.86
2023-03-21T20:49:14.007Z,62.66
2023-03-21T20:54:27.219Z,63.10
2023-03-21T20:56:53.705Z,64.39
2023-03-21T20:59:26.595Z,64.86
2023-03-21T21:01:55.142Z,67.62
2023-03-21T21:04:22.430Z,67.36
2023-03-21T21:06:49.618Z,69.42
2023-03-21T21:09:16.912Z,68.43
2023-03-21T21:12:06.161Z,68.16
2023-03-21T21:14:29.982Z,68.92
2023-03-21T21:16:56.455Z,69.14
2023-03-21T21:19:22.911Z,71.71
2023-03-21T21:21:49.372Z,69.16
2023-03-21T21:24:15.798Z,71.50
2023-03-21T21:26:42.337Z,72.50
2023-03-21T21:29:08.865Z,71.04
2023-03-21T21:31:38.230Z,71.21
2023-03-21T21:34:04.708Z,70.54
2023-03-21T21:36:31.178Z,70.59
2023-03-21T21:38:57.634Z,69.31
2023-03-21T21:41:24.064Z,69.12
2023-03-21T21:43:50.525Z,69.99
2023-03-21T21:46:16.996Z,70.30
2023-03-21T21:48:44.281Z,71.05
2023-03-21T21:51:10.948Z,72.47
2023-03-21T21:53:37.515Z,70.90
2023-03-21T21:56:04.174Z,72.26
2023-03-21T21:58:30.675Z,72.59
2023-03-21T22:01:01.204Z,72.86
2023-03-21T22:03:27.791Z,72.16
2023-03-21T22:06:01.925Z,69.27
2023-03-21T22:08:28.415Z,70.95
2023-03-21T22:10:54.967Z,72.22
2023-03-21T22:13:21.520Z,74.06
2023-03-21T22:15:48.302Z,72.83
2023-03-21T22:18:14.806Z,72.89
2023-03-21T22:20:41.484Z,71.80
2023-03-21T22:23:07.997Z,75.00
2023-03-21T22:25:34.513Z,75.26
2023-03-21T22:28:01.074Z,74.62
2023-03-21T22:30:27.604Z,76.18
2023-03-21T22:33:08.433Z,75.54
2023-03-21T22:35:35.278Z,75.99
2023-03-21T22:38:01.747Z,76.30
2023-03-21T22:40:28.281Z,74.95
2023-03-21T22:42:54.753Z,75.18
2023-03-21T22:45:21.205Z,75.04
2023-03-21T22:47:47.679Z,75.24
2023-03-21T22:50:14.224Z,75.41
2023-03-21T22:52:40.694Z,75.00
2023-03-21T22:55:07.440Z,75.00
2023-03-21T22:57:33.896Z,74.73
2023-03-21T23:00:00.370Z,74.13
2023-03-21T23:02:27.178Z,73.73
2023-03-21T23:04:53.643Z,74.12
2023-03-21T23:07:20.131Z,73.54
2023-03-21T23:09:46.624Z,73.70
2023-03-21T23:12:13.077Z,76.10
2023-03-21T23:14:39.539Z,74.09
2023-03-21T23:17:08.435Z,74.17
2023-03-21T23:19:35.061Z,74.76
2023-03-21T23:22:02.709Z,74.84
2023-03-21T23:24:29.152Z,74.41
2023-03-21T23:26:55.656Z,74.39
2023-03-21T23:29:22.082Z,76.58
2023-03-21T23:31:48.548Z,74.81
2023-03-21T23:34:15.051Z,74.30
2023-03-21T23:36:41.842Z,75.42
2023-03-21T23:39:09.012Z,75.57
2023-03-21T23:41:35.554Z,76.40
2023-03-21T23:44:02.006Z,78.58
2023-03-21T23:46:28.537Z,76.61
2023-03-21T23:48:55.038Z,76.20
2023-03-21T23:51:21.736Z,75.60
2023-03-21T23:53:48.206Z,76.79
2023-03-21T23:56:17.973Z,78.17
2023-03-21T23:58:45.339Z,79.26
